Newton, NC (28658)

1:02 AM EST on February 07, 2016 (GMT -0500)
Catawba County Government Center | | Change Station
CLOSE
Current Station
Personal Weather Station
Location: Newton, NC
Elevation: 945 ft
Nearby Weather Stations

Elev 945 ft 35.66 °N, 81.23 °W | Updated 11 minutes ago

Partly Cloudy
Partly Cloudy
33.4 °F
Feels Like 33 °F
N
1.1
Wind Variable Wind from NNE

Today
High -- | Low -- °F
--% Chance of Precip.
Yesterday
High -- | Low -- °F
Precip. -- in
Pressure 30.18 in
Visibility 10.0 miles
Clouds Clear
Windchill 33 °F
Dew Point 23 °F
Humidity 64%
Rainfall 0.00 in
Snow Depth Not available.
7:20 AM 5:58 PM
Waning Crescent, 2% visible
METAR KHKY 070553Z AUTO 33004KT 10SM CLR M01/M06 A3019 RMK AO2 SLP220 T10061056 10056 21006 58014
Pressure 30.18 in
Visibility 10.0 miles
Clouds Clear
Windchill 33 °F
Dew Point 23 °F
Humidity 64%
Rainfall 0.00 in
Snow Depth Not available.
7:20 AM 5:58 PM
Waning Crescent, 2% visible
METAR KHKY 070553Z AUTO 33004KT 10SM CLR M01/M06 A3019 RMK AO2 SLP220 T10061056 10056 21006 58014

10-Day Weather Forecast

Almanac

Astronomy

Feb. 07, 2016 Rise Set
Actual Time
Civil Twilight
Nautical Twilight
Astronomical Twilight
Moon
Length of Visible Light
Length of Day
Tomorrow will be .
, % of the Moon is Illuminated

Today's Extremes

State Highs State Lows

Community

WunderPhotos

Upload Photos

1,891,172 photos uploaded!

WunderBlog® & News

Nearby

Air Quality

  Air Quality AQ Index Pollutant
Not available.

Snow Depth

Station Depth Elevation

Earthquake Activity

City Distance Mag. Time & Date
Minimum magnitude displayed is 2.5.

Coastal Water Temperatures

Place Temperature

Stations

Nearby Weather Stations

Station Location Temp. Windchill Dew Point Humidity Wind Precip. Elev Updated Type
                   

Watches & Warnings

There are currently no watches in effect.